sensor_id;sensor_type;location;lat;lon;timestamp;P1;durP1;ratioP1;P2;durP2;ratioP2
73938;SDS011;62291;47.554;8.504;2022-08-03T00:01:50;3.03;;;2.72;;
73938;SDS011;62291;47.554;8.504;2022-08-03T00:04:15;7.13;;;2.90;;
73938;SDS011;62291;47.554;8.504;2022-08-03T00:06:41;4.90;;;2.40;;
73938;SDS011;62291;47.554;8.504;2022-08-03T00:09:07;3.17;;;2.83;;
73938;SDS011;62291;47.554;8.504;2022-08-03T00:11:33;3.25;;;2.55;;
73938;SDS011;62291;47.554;8.504;2022-08-03T00:13:59;3.50;;;2.90;;
73938;SDS011;62291;47.554;8.504;2022-08-03T00:16:25;5.35;;;3.05;;
73938;SDS011;62291;47.554;8.504;2022-08-03T00:18:51;7.00;;;3.28;;
73938;SDS011;62291;47.554;8.504;2022-08-03T00:21:16;5.43;;;3.47;;
73938;SDS011;62291;47.554;8.504;2022-08-03T00:23:42;6.13;;;2.90;;
73938;SDS011;62291;47.554;8.504;2022-08-03T00:26:08;5.40;;;2.95;;
73938;SDS011;62291;47.554;8.504;2022-08-03T00:28:34;3.60;;;2.65;;
73938;SDS011;62291;47.554;8.504;2022-08-03T00:30:59;4.45;;;2.65;;
73938;SDS011;62291;47.554;8.504;2022-08-03T00:33:25;4.50;;;3.20;;
73938;SDS011;62291;47.554;8.504;2022-08-03T00:35:51;4.20;;;2.67;;
73938;SDS011;62291;47.554;8.504;2022-08-03T00:38:17;5.38;;;2.90;;
73938;SDS011;62291;47.554;8.504;2022-08-03T00:40:44;3.35;;;2.80;;
73938;SDS011;62291;47.554;8.504;2022-08-03T00:43:10;3.67;;;3.10;;
73938;SDS011;62291;47.554;8.504;2022-08-03T00:45:38;3.50;;;2.88;;
73938;SDS011;62291;47.554;8.504;2022-08-03T00:48:06;4.38;;;2.90;;
73938;SDS011;62291;47.554;8.504;2022-08-03T00:50:33;3.75;;;2.90;;
73938;SDS011;62291;47.554;8.504;2022-08-03T00:53:00;4.20;;;3.30;;
73938;SDS011;62291;47.554;8.504;2022-08-03T00:55:28;3.03;;;2.72;;
73938;SDS011;62291;47.554;8.504;2022-08-03T00:57:54;4.18;;;2.78;;
73938;SDS011;62291;47.554;8.504;2022-08-03T01:00:21;3.60;;;2.60;;
73938;SDS011;62291;47.554;8.504;2022-08-03T01:02:48;6.05;;;2.97;;
73938;SDS011;62291;47.554;8.504;2022-08-03T01:05:15;3.15;;;2.42;;
73938;SDS011;62291;47.554;8.504;2022-08-03T01:13:43;4.10;;;3.03;;
73938;SDS011;62291;47.554;8.504;2022-08-03T01:18:35;3.75;;;3.20;;
73938;SDS011;62291;47.554;8.504;2022-08-03T01:21:17;3.85;;;2.92;;
73938;SDS011;62291;47.554;8.504;2022-08-03T01:26:34;5.78;;;3.22;;
73938;SDS011;62291;47.554;8.504;2022-08-03T01:31:57;3.42;;;2.92;;
73938;SDS011;62291;47.554;8.504;2022-08-03T01:34:30;3.58;;;2.85;;
73938;SDS011;62291;47.554;8.504;2022-08-03T01:36:58;3.13;;;2.83;;
73938;SDS011;62291;47.554;8.504;2022-08-03T01:39:28;4.63;;;2.72;;
73938;SDS011;62291;47.554;8.504;2022-08-03T01:41:58;5.53;;;2.97;;
73938;SDS011;62291;47.554;8.504;2022-08-03T01:44:30;4.65;;;3.10;;
73938;SDS011;62291;47.554;8.504;2022-08-03T01:47:01;5.60;;;2.83;;
73938;SDS011;62291;47.554;8.504;2022-08-03T01:49:29;3.97;;;3.10;;
73938;SDS011;62291;47.554;8.504;2022-08-03T01:51:57;4.00;;;3.47;;
73938;SDS011;62291;47.554;8.504;2022-08-03T01:54:24;3.70;;;3.33;;
73938;SDS011;62291;47.554;8.504;2022-08-03T01:56:51;3.70;;;3.30;;
73938;SDS011;62291;47.554;8.504;2022-08-03T01:59:19;4.78;;;3.85;;
73938;SDS011;62291;47.554;8.504;2022-08-03T02:01:47;3.83;;;3.13;;
73938;SDS011;62291;47.554;8.504;2022-08-03T02:04:13;5.70;;;3.17;;
73938;SDS011;62291;47.554;8.504;2022-08-03T02:06:42;3.63;;;3.08;;
73938;SDS011;62291;47.554;8.504;2022-08-03T02:09:09;4.38;;;3.50;;
73938;SDS011;62291;47.554;8.504;2022-08-03T02:11:37;6.18;;;3.22;;
73938;SDS011;62291;47.554;8.504;2022-08-03T02:14:04;4.05;;;3.30;;
73938;SDS011;62291;47.554;8.504;2022-08-03T02:16:31;5.20;;;3.55;;
73938;SDS011;62291;47.554;8.504;2022-08-03T02:18:58;4.25;;;3.80;;
73938;SDS011;62291;47.554;8.504;2022-08-03T02:21:27;9.35;;;3.67;;
73938;SDS011;62291;47.554;8.504;2022-08-03T02:23:54;4.43;;;3.75;;
73938;SDS011;62291;47.554;8.504;2022-08-03T02:26:20;5.18;;;3.45;;
73938;SDS011;62291;47.554;8.504;2022-08-03T02:28:48;8.35;;;4.43;;
73938;SDS011;62291;47.554;8.504;2022-08-03T02:31:21;6.65;;;4.07;;
73938;SDS011;62291;47.554;8.504;2022-08-03T02:33:52;4.72;;;3.55;;
73938;SDS011;62291;47.554;8.504;2022-08-03T02:36:22;5.90;;;3.60;;
73938;SDS011;62291;47.554;8.504;2022-08-03T02:38:55;5.50;;;3.75;;
73938;SDS011;62291;47.554;8.504;2022-08-03T02:41:23;8.10;;;3.72;;
73938;SDS011;62291;47.554;8.504;2022-08-03T02:43:54;7.05;;;3.35;;
73938;SDS011;62291;47.554;8.504;2022-08-03T02:46:23;3.65;;;3.20;;
73938;SDS011;62291;47.554;8.504;2022-08-03T02:48:54;5.25;;;3.60;;
73938;SDS011;62291;47.554;8.504;2022-08-03T02:51:23;3.25;;;2.67;;
73938;SDS011;62291;47.554;8.504;2022-08-03T02:53:50;4.45;;;3.10;;
73938;SDS011;62291;47.554;8.504;2022-08-03T02:56:18;4.68;;;3.28;;
73938;SDS011;62291;47.554;8.504;2022-08-03T02:58:44;5.00;;;3.50;;
73938;SDS011;62291;47.554;8.504;2022-08-03T03:01:13;4.78;;;3.60;;
73938;SDS011;62291;47.554;8.504;2022-08-03T03:03:39;4.57;;;3.40;;
73938;SDS011;62291;47.554;8.504;2022-08-03T03:06:06;4.75;;;3.38;;
73938;SDS011;62291;47.554;8.504;2022-08-03T03:08:33;3.25;;;2.95;;
73938;SDS011;62291;47.554;8.504;2022-08-03T03:10:59;5.53;;;3.53;;
73938;SDS011;62291;47.554;8.504;2022-08-03T03:13:26;5.07;;;3.47;;
73938;SDS011;62291;47.554;8.504;2022-08-03T03:15:54;4.05;;;3.65;;
73938;SDS011;62291;47.554;8.504;2022-08-03T03:18:23;6.00;;;3.92;;
73938;SDS011;62291;47.554;8.504;2022-08-03T03:20:51;5.90;;;4.85;;
73938;SDS011;62291;47.554;8.504;2022-08-03T03:23:19;5.55;;;4.28;;
73938;SDS011;62291;47.554;8.504;2022-08-03T03:25:46;7.72;;;5.20;;
73938;SDS011;62291;47.554;8.504;2022-08-03T03:28:13;7.45;;;4.55;;
73938;SDS011;62291;47.554;8.504;2022-08-03T03:30:39;8.73;;;6.00;;
73938;SDS011;62291;47.554;8.504;2022-08-03T03:33:05;5.70;;;4.45;;
73938;SDS011;62291;47.554;8.504;2022-08-03T03:35:31;5.35;;;4.00;;
73938;SDS011;62291;47.554;8.504;2022-08-03T03:37:57;4.93;;;4.00;;
73938;SDS011;62291;47.554;8.504;2022-08-03T03:40:22;6.03;;;4.60;;
73938;SDS011;62291;47.554;8.504;2022-08-03T03:42:49;7.70;;;3.72;;
73938;SDS011;62291;47.554;8.504;2022-08-03T03:45:14;5.32;;;3.72;;
73938;SDS011;62291;47.554;8.504;2022-08-03T03:47:41;5.07;;;4.57;;
73938;SDS011;62291;47.554;8.504;2022-08-03T03:50:07;6.05;;;4.18;;
73938;SDS011;62291;47.554;8.504;2022-08-03T03:52:34;5.05;;;4.03;;
73938;SDS011;62291;47.554;8.504;2022-08-03T03:55:01;4.20;;;3.63;;
73938;SDS011;62291;47.554;8.504;2022-08-03T03:57:26;6.22;;;3.80;;
73938;SDS011;62291;47.554;8.504;2022-08-03T03:59:53;6.13;;;4.32;;
73938;SDS011;62291;47.554;8.504;2022-08-03T04:02:18;4.70;;;4.13;;
73938;SDS011;62291;47.554;8.504;2022-08-03T04:04:44;5.88;;;3.60;;
73938;SDS011;62291;47.554;8.504;2022-08-03T04:07:28;7.05;;;4.30;;
73938;SDS011;62291;47.554;8.504;2022-08-03T04:10:21;5.22;;;4.55;;
73938;SDS011;62291;47.554;8.504;2022-08-03T04:13:08;4.90;;;4.40;;
73938;SDS011;62291;47.554;8.504;2022-08-03T04:15:36;4.70;;;4.05;;
73938;SDS011;62291;47.554;8.504;2022-08-03T04:18:03;5.07;;;4.03;;
73938;SDS011;62291;47.554;8.504;2022-08-03T04:20:34;8.48;;;4.10;;
73938;SDS011;62291;47.554;8.504;2022-08-03T04:23:02;7.43;;;5.20;;
73938;SDS011;62291;47.554;8.504;2022-08-03T04:25:30;6.20;;;4.72;;
73938;SDS011;62291;47.554;8.504;2022-08-03T04:28:01;5.45;;;4.20;;
73938;SDS011;62291;47.554;8.504;2022-08-03T04:30:29;7.47;;;4.20;;
73938;SDS011;62291;47.554;8.504;2022-08-03T04:32:57;5.10;;;3.95;;
73938;SDS011;62291;47.554;8.504;2022-08-03T04:35:25;8.00;;;4.03;;
73938;SDS011;62291;47.554;8.504;2022-08-03T04:37:55;4.30;;;3.70;;
73938;SDS011;62291;47.554;8.504;2022-08-03T04:40:33;4.22;;;3.80;;
73938;SDS011;62291;47.554;8.504;2022-08-03T04:43:00;5.18;;;4.68;;
73938;SDS011;62291;47.554;8.504;2022-08-03T04:45:27;4.30;;;3.90;;
73938;SDS011;62291;47.554;8.504;2022-08-03T04:47:55;4.35;;;3.45;;
73938;SDS011;62291;47.554;8.504;2022-08-03T04:50:22;3.72;;;3.33;;
73938;SDS011;62291;47.554;8.504;2022-08-03T04:52:49;3.55;;;3.00;;
73938;SDS011;62291;47.554;8.504;2022-08-03T04:55:24;3.70;;;3.25;;
73938;SDS011;62291;47.554;8.504;2022-08-03T04:57:51;5.22;;;3.70;;
73938;SDS011;62291;47.554;8.504;2022-08-03T05:00:17;4.35;;;3.55;;
73938;SDS011;62291;47.554;8.504;2022-08-03T05:02:43;3.65;;;3.20;;
73938;SDS011;62291;47.554;8.504;2022-08-03T05:05:08;5.43;;;3.65;;
73938;SDS011;62291;47.554;8.504;2022-08-03T05:07:35;5.35;;;3.20;;
73938;SDS011;62291;47.554;8.504;2022-08-03T05:10:02;6.97;;;3.40;;
73938;SDS011;62291;47.554;8.504;2022-08-03T05:12:33;3.97;;;3.50;;
73938;SDS011;62291;47.554;8.504;2022-08-03T05:15:01;3.85;;;3.45;;
73938;SDS011;62291;47.554;8.504;2022-08-03T05:17:28;5.25;;;3.47;;
73938;SDS011;62291;47.554;8.504;2022-08-03T05:19:54;4.32;;;3.33;;
73938;SDS011;62291;47.554;8.504;2022-08-03T05:22:20;5.90;;;3.38;;
73938;SDS011;62291;47.554;8.504;2022-08-03T05:24:46;3.58;;;3.28;;
73938;SDS011;62291;47.554;8.504;2022-08-03T05:27:12;3.97;;;3.10;;
73938;SDS011;62291;47.554;8.504;2022-08-03T05:29:43;3.63;;;3.22;;
73938;SDS011;62291;47.554;8.504;2022-08-03T05:32:09;5.20;;;3.30;;
73938;SDS011;62291;47.554;8.504;2022-08-03T05:34:35;4.30;;;3.38;;
73938;SDS011;62291;47.554;8.504;2022-08-03T05:37:01;6.78;;;3.75;;
73938;SDS011;62291;47.554;8.504;2022-08-03T05:39:27;3.30;;;3.00;;
73938;SDS011;62291;47.554;8.504;2022-08-03T05:41:52;3.88;;;3.50;;
73938;SDS011;62291;47.554;8.504;2022-08-03T05:44:18;5.40;;;3.35;;
73938;SDS011;62291;47.554;8.504;2022-08-03T05:46:43;4.70;;;3.30;;
73938;SDS011;62291;47.554;8.504;2022-08-03T05:49:09;5.20;;;3.65;;
73938;SDS011;62291;47.554;8.504;2022-08-03T05:51:35;4.95;;;3.22;;
73938;SDS011;62291;47.554;8.504;2022-08-03T05:54:01;3.63;;;3.28;;
73938;SDS011;62291;47.554;8.504;2022-08-03T05:56:27;4.05;;;3.60;;
73938;SDS011;62291;47.554;8.504;2022-08-03T05:58:53;3.35;;;3.05;;
73938;SDS011;62291;47.554;8.504;2022-08-03T06:01:19;4.32;;;3.40;;
73938;SDS011;62291;47.554;8.504;2022-08-03T06:03:48;6.40;;;3.72;;
73938;SDS011;62291;47.554;8.504;2022-08-03T06:06:14;5.07;;;3.33;;
73938;SDS011;62291;47.554;8.504;2022-08-03T06:08:41;5.38;;;3.35;;
73938;SDS011;62291;47.554;8.504;2022-08-03T06:11:07;4.50;;;3.55;;
73938;SDS011;62291;47.554;8.504;2022-08-03T06:13:33;7.38;;;3.55;;
73938;SDS011;62291;47.554;8.504;2022-08-03T06:15:59;5.85;;;3.50;;
73938;SDS011;62291;47.554;8.504;2022-08-03T06:18:25;8.05;;;3.47;;
73938;SDS011;62291;47.554;8.504;2022-08-03T06:20:51;5.53;;;3.45;;
73938;SDS011;62291;47.554;8.504;2022-08-03T06:23:17;6.40;;;3.60;;
73938;SDS011;62291;47.554;8.504;2022-08-03T06:25:43;5.13;;;3.67;;
73938;SDS011;62291;47.554;8.504;2022-08-03T06:28:09;7.38;;;3.33;;
73938;SDS011;62291;47.554;8.504;2022-08-03T06:30:35;7.05;;;2.95;;
73938;SDS011;62291;47.554;8.504;2022-08-03T06:33:00;6.20;;;3.63;;
73938;SDS011;62291;47.554;8.504;2022-08-03T06:35:26;4.40;;;4.00;;
73938;SDS011;62291;47.554;8.504;2022-08-03T06:37:52;4.32;;;3.45;;
73938;SDS011;62291;47.554;8.504;2022-08-03T06:40:19;5.43;;;3.90;;
73938;SDS011;62291;47.554;8.504;2022-08-03T06:42:57;7.13;;;4.43;;
73938;SDS011;62291;47.554;8.504;2022-08-03T06:45:23;5.90;;;3.95;;
73938;SDS011;62291;47.554;8.504;2022-08-03T06:48:03;6.40;;;4.10;;
73938;SDS011;62291;47.554;8.504;2022-08-03T06:50:31;5.70;;;3.65;;
73938;SDS011;62291;47.554;8.504;2022-08-03T06:52:57;5.32;;;3.90;;
73938;SDS011;62291;47.554;8.504;2022-08-03T06:55:24;7.03;;;3.75;;
73938;SDS011;62291;47.554;8.504;2022-08-03T06:57:50;6.03;;;3.90;;
73938;SDS011;62291;47.554;8.504;2022-08-03T07:00:16;10.93;;;5.47;;
73938;SDS011;62291;47.554;8.504;2022-08-03T07:02:43;7.60;;;4.22;;
73938;SDS011;62291;47.554;8.504;2022-08-03T07:05:08;9.75;;;6.72;;
73938;SDS011;62291;47.554;8.504;2022-08-03T07:07:35;8.77;;;4.00;;
73938;SDS011;62291;47.554;8.504;2022-08-03T07:10:03;7.78;;;3.70;;
73938;SDS011;62291;47.554;8.504;2022-08-03T07:12:30;4.03;;;3.28;;
73938;SDS011;62291;47.554;8.504;2022-08-03T07:14:57;6.38;;;3.75;;
73938;SDS011;62291;47.554;8.504;2022-08-03T07:17:24;5.95;;;3.88;;
73938;SDS011;62291;47.554;8.504;2022-08-03T07:19:49;6.68;;;3.45;;
73938;SDS011;62291;47.554;8.504;2022-08-03T07:22:15;6.90;;;3.80;;
73938;SDS011;62291;47.554;8.504;2022-08-03T07:24:41;5.93;;;3.33;;
73938;SDS011;62291;47.554;8.504;2022-08-03T07:27:07;5.35;;;3.30;;
73938;SDS011;62291;47.554;8.504;2022-08-03T07:29:34;5.47;;;3.20;;
73938;SDS011;62291;47.554;8.504;2022-08-03T07:32:00;5.95;;;3.13;;
73938;SDS011;62291;47.554;8.504;2022-08-03T07:34:26;6.55;;;3.05;;
73938;SDS011;62291;47.554;8.504;2022-08-03T07:36:52;5.28;;;2.83;;
73938;SDS011;62291;47.554;8.504;2022-08-03T07:39:18;4.60;;;3.05;;
73938;SDS011;62291;47.554;8.504;2022-08-03T07:41:44;5.43;;;3.33;;
73938;SDS011;62291;47.554;8.504;2022-08-03T07:44:10;6.55;;;2.90;;
73938;SDS011;62291;47.554;8.504;2022-08-03T07:46:35;5.35;;;3.00;;
73938;SDS011;62291;47.554;8.504;2022-08-03T07:49:01;3.75;;;2.90;;
73938;SDS011;62291;47.554;8.504;2022-08-03T07:51:27;4.22;;;2.60;;
73938;SDS011;62291;47.554;8.504;2022-08-03T07:53:52;4.32;;;2.83;;
73938;SDS011;62291;47.554;8.504;2022-08-03T07:56:21;4.45;;;3.13;;
73938;SDS011;62291;47.554;8.504;2022-08-03T07:58:50;5.20;;;2.70;;
73938;SDS011;62291;47.554;8.504;2022-08-03T08:01:16;3.60;;;2.80;;
73938;SDS011;62291;47.554;8.504;2022-08-03T08:03:44;5.05;;;2.55;;
73938;SDS011;62291;47.554;8.504;2022-08-03T08:06:10;5.32;;;3.03;;
73938;SDS011;62291;47.554;8.504;2022-08-03T08:08:36;6.75;;;2.90;;
73938;SDS011;62291;47.554;8.504;2022-08-03T08:11:02;3.72;;;2.55;;
73938;SDS011;62291;47.554;8.504;2022-08-03T08:13:28;4.28;;;2.60;;
73938;SDS011;62291;47.554;8.504;2022-08-03T08:15:54;4.03;;;2.70;;
73938;SDS011;62291;47.554;8.504;2022-08-03T08:18:20;4.68;;;2.63;;
73938;SDS011;62291;47.554;8.504;2022-08-03T08:20:45;8.35;;;2.58;;
73938;SDS011;62291;47.554;8.504;2022-08-03T08:23:11;4.65;;;2.10;;
73938;SDS011;62291;47.554;8.504;2022-08-03T08:25:37;5.25;;;2.50;;
73938;SDS011;62291;47.554;8.504;2022-08-03T08:28:03;3.95;;;2.30;;
73938;SDS011;62291;47.554;8.504;2022-08-03T08:30:29;4.45;;;2.40;;
73938;SDS011;62291;47.554;8.504;2022-08-03T08:32:56;8.73;;;2.35;;
73938;SDS011;62291;47.554;8.504;2022-08-03T08:35:22;2.80;;;2.45;;
73938;SDS011;62291;47.554;8.504;2022-08-03T08:37:48;5.25;;;2.50;;
73938;SDS011;62291;47.554;8.504;2022-08-03T08:40:14;4.90;;;2.20;;
73938;SDS011;62291;47.554;8.504;2022-08-03T08:42:40;10.57;;;2.33;;
73938;SDS011;62291;47.554;8.504;2022-08-03T08:45:09;16.08;;;2.95;;
73938;SDS011;62291;47.554;8.504;2022-08-03T08:47:39;9.50;;;2.53;;
73938;SDS011;62291;47.554;8.504;2022-08-03T08:50:08;9.48;;;2.40;;
73938;SDS011;62291;47.554;8.504;2022-08-03T08:52:35;6.57;;;2.25;;
73938;SDS011;62291;47.554;8.504;2022-08-03T08:55:04;3.28;;;2.10;;
73938;SDS011;62291;47.554;8.504;2022-08-03T08:57:35;5.00;;;2.30;;
73938;SDS011;62291;47.554;8.504;2022-08-03T09:00:04;3.33;;;2.13;;
73938;SDS011;62291;47.554;8.504;2022-08-03T09:04:59;5.70;;;2.50;;
73938;SDS011;62291;47.554;8.504;2022-08-03T09:07:26;7.18;;;2.80;;
73938;SDS011;62291;47.554;8.504;2022-08-03T09:09:52;6.85;;;2.42;;
73938;SDS011;62291;47.554;8.504;2022-08-03T09:12:18;4.20;;;1.95;;
73938;SDS011;62291;47.554;8.504;2022-08-03T09:14:43;2.70;;;2.08;;
73938;SDS011;62291;47.554;8.504;2022-08-03T09:17:09;3.00;;;1.95;;
73938;SDS011;62291;47.554;8.504;2022-08-03T09:19:35;8.00;;;2.33;;
73938;SDS011;62291;47.554;8.504;2022-08-03T09:22:13;3.72;;;2.03;;
73938;SDS011;62291;47.554;8.504;2022-08-03T09:24:57;6.90;;;2.08;;
73938;SDS011;62291;47.554;8.504;2022-08-03T09:27:25;4.07;;;2.50;;
73938;SDS011;62291;47.554;8.504;2022-08-03T09:29:51;3.97;;;2.58;;
73938;SDS011;62291;47.554;8.504;2022-08-03T09:32:22;4.95;;;2.60;;
73938;SDS011;62291;47.554;8.504;2022-08-03T09:34:49;4.43;;;2.67;;
73938;SDS011;62291;47.554;8.504;2022-08-03T09:37:17;4.32;;;2.30;;
73938;SDS011;62291;47.554;8.504;2022-08-03T09:39:45;3.92;;;2.40;;
73938;SDS011;62291;47.554;8.504;2022-08-03T09:42:17;4.43;;;2.00;;
73938;SDS011;62291;47.554;8.504;2022-08-03T09:44:47;3.90;;;2.30;;
73938;SDS011;62291;47.554;8.504;2022-08-03T09:47:15;4.38;;;2.50;;
73938;SDS011;62291;47.554;8.504;2022-08-03T09:50:03;10.93;;;2.63;;
73938;SDS011;62291;47.554;8.504;2022-08-03T09:52:34;4.65;;;2.33;;
73938;SDS011;62291;47.554;8.504;2022-08-03T09:55:07;2.42;;;1.95;;
73938;SDS011;62291;47.554;8.504;2022-08-03T09:57:34;5.72;;;2.40;;
73938;SDS011;62291;47.554;8.504;2022-08-03T10:00:11;3.03;;;2.20;;
73938;SDS011;62291;47.554;8.504;2022-08-03T10:02:42;10.07;;;2.40;;
73938;SDS011;62291;47.554;8.504;2022-08-03T10:07:45;6.07;;;2.28;;
73938;SDS011;62291;47.554;8.504;2022-08-03T10:10:15;6.93;;;2.30;;
73938;SDS011;62291;47.554;8.504;2022-08-03T10:12:42;3.47;;;2.00;;
73938;SDS011;62291;47.554;8.504;2022-08-03T10:15:09;6.38;;;2.10;;
73938;SDS011;62291;47.554;8.504;2022-08-03T10:17:36;5.47;;;2.30;;
73938;SDS011;62291;47.554;8.504;2022-08-03T10:20:03;2.15;;;1.48;;
73938;SDS011;62291;47.554;8.504;2022-08-03T10:22:35;3.80;;;1.80;;
73938;SDS011;62291;47.554;8.504;2022-08-03T10:25:05;2.10;;;1.88;;
73938;SDS011;62291;47.554;8.504;2022-08-03T10:27:34;2.97;;;2.22;;
73938;SDS011;62291;47.554;8.504;2022-08-03T10:30:03;1.80;;;1.70;;
73938;SDS011;62291;47.554;8.504;2022-08-03T10:32:37;2.95;;;1.88;;
73938;SDS011;62291;47.554;8.504;2022-08-03T10:35:18;5.43;;;1.60;;
73938;SDS011;62291;47.554;8.504;2022-08-03T10:37:51;2.08;;;1.70;;
73938;SDS011;62291;47.554;8.504;2022-08-03T10:40:22;4.97;;;1.60;;
73938;SDS011;62291;47.554;8.504;2022-08-03T10:42:49;2.88;;;2.10;;
73938;SDS011;62291;47.554;8.504;2022-08-03T10:45:19;4.13;;;1.95;;
73938;SDS011;62291;47.554;8.504;2022-08-03T10:47:47;2.45;;;1.92;;
73938;SDS011;62291;47.554;8.504;2022-08-03T10:50:15;2.45;;;1.90;;
73938;SDS011;62291;47.554;8.504;2022-08-03T10:52:58;2.00;;;1.80;;
73938;SDS011;62291;47.554;8.504;2022-08-03T11:01:08;2.28;;;1.60;;
73938;SDS011;62291;47.554;8.504;2022-08-03T11:06:23;3.65;;;2.00;;
73938;SDS011;62291;47.554;8.504;2022-08-03T11:11:34;3.88;;;1.92;;
73938;SDS011;62291;47.554;8.504;2022-08-03T11:16:35;4.32;;;2.20;;
73938;SDS011;62291;47.554;8.504;2022-08-03T11:19:08;3.40;;;2.15;;
73938;SDS011;62291;47.554;8.504;2022-08-03T11:42:58;3.08;;;2.00;;
73938;SDS011;62291;47.554;8.504;2022-08-03T11:45:24;6.30;;;2.38;;
73938;SDS011;62291;47.554;8.504;2022-08-03T11:47:52;2.50;;;2.10;;
73938;SDS011;62291;47.554;8.504;2022-08-03T11:50:19;2.25;;;2.05;;
73938;SDS011;62291;47.554;8.504;2022-08-03T11:52:46;6.53;;;1.90;;
73938;SDS011;62291;47.554;8.504;2022-08-03T11:55:13;2.75;;;2.20;;
73938;SDS011;62291;47.554;8.504;2022-08-03T11:57:42;2.23;;;1.90;;
73938;SDS011;62291;47.554;8.504;2022-08-03T12:00:24;3.45;;;1.85;;
73938;SDS011;62291;47.554;8.504;2022-08-03T12:03:02;3.25;;;2.00;;
73938;SDS011;62291;47.554;8.504;2022-08-03T12:05:36;4.55;;;2.65;;
73938;SDS011;62291;47.554;8.504;2022-08-03T12:08:05;2.45;;;1.90;;
73938;SDS011;62291;47.554;8.504;2022-08-03T12:10:32;6.07;;;2.35;;
73938;SDS011;62291;47.554;8.504;2022-08-03T12:12:59;2.88;;;2.00;;
73938;SDS011;62291;47.554;8.504;2022-08-03T12:15:26;4.88;;;1.88;;
73938;SDS011;62291;47.554;8.504;2022-08-03T12:17:53;3.08;;;1.95;;
73938;SDS011;62291;47.554;8.504;2022-08-03T12:20:21;3.60;;;2.00;;
73938;SDS011;62291;47.554;8.504;2022-08-03T12:22:48;2.22;;;1.90;;
73938;SDS011;62291;47.554;8.504;2022-08-03T12:25:22;2.80;;;1.80;;
73938;SDS011;62291;47.554;8.504;2022-08-03T12:27:49;2.88;;;1.80;;
73938;SDS011;62291;47.554;8.504;2022-08-03T12:30:15;3.00;;;1.80;;
73938;SDS011;62291;47.554;8.504;2022-08-03T12:32:42;3.92;;;1.83;;
73938;SDS011;62291;47.554;8.504;2022-08-03T12:35:08;12.93;;;1.92;;
73938;SDS011;62291;47.554;8.504;2022-08-03T12:37:34;3.72;;;1.77;;
73938;SDS011;62291;47.554;8.504;2022-08-03T12:40:01;2.47;;;1.85;;
73938;SDS011;62291;47.554;8.504;2022-08-03T12:44:56;4.50;;;1.80;;
73938;SDS011;62291;47.554;8.504;2022-08-03T12:47:21;3.13;;;1.67;;
73938;SDS011;62291;47.554;8.504;2022-08-03T12:49:48;4.10;;;1.70;;
73938;SDS011;62291;47.554;8.504;2022-08-03T12:52:15;3.80;;;1.67;;
73938;SDS011;62291;47.554;8.504;2022-08-03T12:54:42;2.67;;;1.83;;
73938;SDS011;62291;47.554;8.504;2022-08-03T12:57:17;6.40;;;1.80;;
73938;SDS011;62291;47.554;8.504;2022-08-03T12:59:44;3.08;;;1.52;;
73938;SDS011;62291;47.554;8.504;2022-08-03T13:02:13;6.75;;;1.50;;
73938;SDS011;62291;47.554;8.504;2022-08-03T13:04:43;3.75;;;1.20;;
73938;SDS011;62291;47.554;8.504;2022-08-03T13:07:10;5.05;;;1.40;;
73938;SDS011;62291;47.554;8.504;2022-08-03T13:09:43;2.78;;;1.40;;
73938;SDS011;62291;47.554;8.504;2022-08-03T13:12:20;5.07;;;1.45;;
73938;SDS011;62291;47.554;8.504;2022-08-03T13:14:48;2.47;;;1.45;;
73938;SDS011;62291;47.554;8.504;2022-08-03T13:17:15;4.95;;;1.60;;
73938;SDS011;62291;47.554;8.504;2022-08-03T13:19:42;2.25;;;1.52;;
73938;SDS011;62291;47.554;8.504;2022-08-03T13:22:12;3.67;;;1.42;;
73938;SDS011;62291;47.554;8.504;2022-08-03T13:24:40;3.03;;;1.60;;
73938;SDS011;62291;47.554;8.504;2022-08-03T13:27:07;2.75;;;1.50;;
73938;SDS011;62291;47.554;8.504;2022-08-03T13:29:33;2.78;;;1.50;;
73938;SDS011;62291;47.554;8.504;2022-08-03T13:32:00;1.98;;;1.48;;
73938;SDS011;62291;47.554;8.504;2022-08-03T13:34:26;4.25;;;1.50;;
73938;SDS011;62291;47.554;8.504;2022-08-03T13:36:52;2.40;;;1.60;;
73938;SDS011;62291;47.554;8.504;2022-08-03T13:39:18;6.63;;;1.40;;
73938;SDS011;62291;47.554;8.504;2022-08-03T13:41:44;3.15;;;1.10;;
73938;SDS011;62291;47.554;8.504;2022-08-03T13:44:10;5.03;;;1.20;;
73938;SDS011;62291;47.554;8.504;2022-08-03T13:46:36;2.83;;;1.20;;
73938;SDS011;62291;47.554;8.504;2022-08-03T13:49:02;3.05;;;1.23;;
73938;SDS011;62291;47.554;8.504;2022-08-03T13:51:28;3.67;;;1.30;;
73938;SDS011;62291;47.554;8.504;2022-08-03T13:53:54;3.92;;;1.20;;
73938;SDS011;62291;47.554;8.504;2022-08-03T13:56:19;5.93;;;1.30;;
73938;SDS011;62291;47.554;8.504;2022-08-03T13:58:45;3.25;;;1.40;;
73938;SDS011;62291;47.554;8.504;2022-08-03T14:01:11;5.45;;;1.33;;
73938;SDS011;62291;47.554;8.504;2022-08-03T14:03:36;1.95;;;1.30;;
73938;SDS011;62291;47.554;8.504;2022-08-03T14:06:02;1.60;;;1.15;;
73938;SDS011;62291;47.554;8.504;2022-08-03T14:08:28;1.30;;;1.10;;
73938;SDS011;62291;47.554;8.504;2022-08-03T14:10:54;3.38;;;1.20;;
73938;SDS011;62291;47.554;8.504;2022-08-03T14:13:19;3.60;;;1.40;;
73938;SDS011;62291;47.554;8.504;2022-08-03T14:15:46;2.25;;;1.23;;
73938;SDS011;62291;47.554;8.504;2022-08-03T14:18:12;4.43;;;1.10;;
73938;SDS011;62291;47.554;8.504;2022-08-03T14:20:37;1.65;;;1.27;;
73938;SDS011;62291;47.554;8.504;2022-08-03T14:23:03;3.75;;;1.20;;
73938;SDS011;62291;47.554;8.504;2022-08-03T14:25:29;2.20;;;1.25;;
73938;SDS011;62291;47.554;8.504;2022-08-03T14:27:55;3.25;;;2.95;;
73938;SDS011;62291;47.554;8.504;2022-08-03T14:30:21;1.40;;;1.10;;
73938;SDS011;62291;47.554;8.504;2022-08-03T14:32:47;2.10;;;1.20;;
73938;SDS011;62291;47.554;8.504;2022-08-03T14:35:12;2.08;;;1.00;;
73938;SDS011;62291;47.554;8.504;2022-08-03T14:37:38;1.38;;;1.00;;
73938;SDS011;62291;47.554;8.504;2022-08-03T14:40:04;2.97;;;1.10;;
73938;SDS011;62291;47.554;8.504;2022-08-03T14:42:30;2.67;;;1.13;;
73938;SDS011;62291;47.554;8.504;2022-08-03T14:44:56;4.70;;;1.00;;
73938;SDS011;62291;47.554;8.504;2022-08-03T14:47:22;2.05;;;0.90;;
73938;SDS011;62291;47.554;8.504;2022-08-03T14:49:48;1.23;;;0.90;;
73938;SDS011;62291;47.554;8.504;2022-08-03T14:52:13;1.40;;;0.90;;
73938;SDS011;62291;47.554;8.504;2022-08-03T14:54:39;1.13;;;0.80;;
73938;SDS011;62291;47.554;8.504;2022-08-03T14:57:05;3.28;;;0.80;;
73938;SDS011;62291;47.554;8.504;2022-08-03T14:59:30;2.65;;;1.02;;
73938;SDS011;62291;47.554;8.504;2022-08-03T15:01:56;1.40;;;0.90;;
73938;SDS011;62291;47.554;8.504;2022-08-03T15:04:22;4.38;;;1.10;;
73938;SDS011;62291;47.554;8.504;2022-08-03T15:06:47;3.92;;;1.10;;
73938;SDS011;62291;47.554;8.504;2022-08-03T15:09:16;5.00;;;1.10;;
73938;SDS011;62291;47.554;8.504;2022-08-03T15:11:42;4.85;;;1.73;;
73938;SDS011;62291;47.554;8.504;2022-08-03T15:14:08;2.15;;;1.20;;
73938;SDS011;62291;47.554;8.504;2022-08-03T15:16:33;2.58;;;1.45;;
73938;SDS011;62291;47.554;8.504;2022-08-03T15:18:59;3.20;;;1.27;;
73938;SDS011;62291;47.554;8.504;2022-08-03T15:21:25;2.33;;;1.25;;
73938;SDS011;62291;47.554;8.504;2022-08-03T15:23:50;1.55;;;1.00;;
73938;SDS011;62291;47.554;8.504;2022-08-03T15:26:16;1.58;;;0.88;;
73938;SDS011;62291;47.554;8.504;2022-08-03T15:28:42;1.40;;;1.17;;
73938;SDS011;62291;47.554;8.504;2022-08-03T15:31:08;3.03;;;1.33;;
73938;SDS011;62291;47.554;8.504;2022-08-03T15:33:33;1.83;;;1.17;;
73938;SDS011;62291;47.554;8.504;2022-08-03T15:35:59;2.97;;;1.55;;
73938;SDS011;62291;47.554;8.504;2022-08-03T15:38:25;2.03;;;1.02;;
73938;SDS011;62291;47.554;8.504;2022-08-03T15:40:50;5.65;;;1.40;;
73938;SDS011;62291;47.554;8.504;2022-08-03T15:43:18;1.60;;;1.10;;
73938;SDS011;62291;47.554;8.504;2022-08-03T15:45:45;5.32;;;1.02;;
73938;SDS011;62291;47.554;8.504;2022-08-03T15:48:11;2.53;;;1.30;;